Observation data for Reese Center on 11/19/2019      Previous  Date  Next       Current Mesonet Observations  Soil Data  Daily Summary Page  Observations in Plain Language
KREE 190600Z 16001KT 06/M01 A2998 RMK A01 T00591008  RH  063%=      5-min Rain = 0
KREE 190605Z 20001KT 06/M01 A2998 RMK A01 T00601008  RH  062%=      5-min Rain = 0
KREE 190610Z 23000KT 05/M01 A2999 RMK A01 T00541009  RH  064%=      5-min Rain = 0
KREE 190615Z 24000KT 06/M01 A2998 RMK A01 T00551008  RH  065%=      5-min Rain = 0
KREE 190620Z 25001KT 05/M01 A2998 RMK A01 T00531010  RH  065%=      5-min Rain = 0
KREE 190625Z 27001KT 05/M01 A2998 RMK A01 T00511010  RH  066%=      5-min Rain = 0
KREE 190630Z 28002KT 05/M01 A2998 RMK A01 T00511010  RH  065%=      5-min Rain = 0
KREE 190635Z 28001KT 05/M01 A2998 RMK A01 T00491010  RH  066%=      5-min Rain = 0
KREE 190640Z 30001KT 05/M01 A2998 RMK A01 T00531008  RH  065%=      5-min Rain = 0
KREE 190645Z 28001KT 06/M01 A2998 RMK A01 T00561009  RH  064%=      5-min Rain = 0
KREE 190650Z 27000KT 06/M01 A2999 RMK A01 T00571009  RH  063%=      5-min Rain = 0
KREE 190655Z 27001KT 06/M01 A2999 RMK A01 T00561010  RH  063%=      5-min Rain = 0
KREE 190700Z 26001KT 05/M01 A2999 RMK A01 T00521010  RH  065%=      5-min Rain = 0
KREE 190705Z 24002KT 05/M01 A2999 RMK A01 T00531009  RH  065%=      5-min Rain = 0
KREE 190710Z 23002KT 05/M01 A2999 RMK A01 T00501010  RH  066%=      5-min Rain = 0
KREE 190715Z 22002KT 05/M01 A2999 RMK A01 T00461011  RH  067%=      5-min Rain = 0
KREE 190720Z 22002KT 05/M01 A2999 RMK A01 T00461011  RH  067%=      5-min Rain = 0
KREE 190725Z 21002KT 05/M01 A2999 RMK A01 T00501009  RH  066%=      5-min Rain = 0
KREE 190730Z 23002KT 05/M01 A2999 RMK A01 T00511010  RH  065%=      5-min Rain = 0
KREE 190735Z 25002KT 05/M01 A2999 RMK A01 T00481012  RH  066%=      5-min Rain = 0
KREE 190740Z 27002KT 04/M01 A2999 RMK A01 T00431012  RH  068%=      5-min Rain = 0
KREE 190745Z 25002KT 04/M01 A2999 RMK A01 T00431011  RH  068%=      5-min Rain = 0
KREE 190750Z 24003KT 04/M01 A2999 RMK A01 T00431011  RH  068%=      5-min Rain = 0
KREE 190755Z 24003KT 04/M01 A2999 RMK A01 T00421011  RH  069%=      5-min Rain = 0
KREE 190800Z 25003KT 05/M01 A2999 RMK A01 T00451010  RH  068%=      5-min Rain = 0
KREE 190805Z 25003KT 04/M01 A2999 RMK A01 T00421012  RH  069%=      5-min Rain = 0
KREE 190810Z 25003KT 04/M01 A2999 RMK A01 T00391012  RH  070%=      5-min Rain = 0
KREE 190815Z 25003KT 04/M01 A2999 RMK A01 T00421010  RH  070%=      5-min Rain = 0
KREE 190820Z 26003KT 04/M01 A2999 RMK A01 T00421010  RH  070%=      5-min Rain = 0
KREE 190825Z 27003KT 04/M01 A2999 RMK A01 T00401011  RH  070%=      5-min Rain = 0
KREE 190830Z 27003KT 04/M01 A2999 RMK A01 T00411010  RH  070%=      5-min Rain = 0
KREE 190835Z 27003KT 04/M01 A2999 RMK A01 T00401012  RH  070%=      5-min Rain = 0
KREE 190840Z 26003KT 04/M01 A2999 RMK A01 T00391011  RH  070%=      5-min Rain = 0
KREE 190845Z 26003KT 04/M01 A2999 RMK A01 T00391011  RH  070%=      5-min Rain = 0
KREE 190850Z 26004KT 04/M01 A2999 RMK A01 T00401012  RH  069%=      5-min Rain = 0
KREE 190855Z 26003KT 04/M01 A2999 RMK A01 T00391013  RH  070%=      5-min Rain = 0
KREE 190900Z 27003KT 04/M01 A2999 RMK A01 T00381013  RH  070%=      5-min Rain = 0
KREE 190905Z 26002KT 04/M01 A2999 RMK A01 T00421011  RH  069%=      5-min Rain = 0
KREE 190910Z 26001KT 05/M01 A2999 RMK A01 T00451011  RH  068%=      5-min Rain = 0
KREE 190915Z 30001KT 05/M01 A2998 RMK A01 T00481012  RH  066%=      5-min Rain = 0
KREE 190920Z 33002KT 04/M01 A2998 RMK A01 T00431013  RH  068%=      5-min Rain = 0
KREE 190925Z 33001KT 04/M01 A2998 RMK A01 T00371014  RH  070%=      5-min Rain = 0
KREE 190930Z 33001KT 04/M01 A2998 RMK A01 T00351013  RH  072%=      5-min Rain = 0
KREE 190935Z 35002KT 03/M01 A2998 RMK A01 T00341014  RH  071%=      5-min Rain = 0
KREE 190940Z 01002KT 04/M01 A2998 RMK A01 T00351013  RH  072%=      5-min Rain = 0
KREE 190945Z 01003KT 04/M01 A2998 RMK A01 T00371012  RH  071%=      5-min Rain = 0
KREE 190950Z 02003KT 04/M01 A2997 RMK A01 T00361012  RH  071%=      5-min Rain = 0
KREE 190955Z 28007G19KT 04/M01 A2998 RMK A01 T00361013  RH  071%=      5-min Rain = 0
KREE 191000Z 24007KT 05/M00 A2999 RMK A01 T00471004  RH  070%=      5-min Rain = 0
KREE 191005Z 25008KT 06/M00 A2999 RMK A01 T00571004  RH  066%=      5-min Rain = 0
KREE 191010Z 25006KT 05/M01 A2998 RMK A01 T00531005  RH  067%=      5-min Rain = 0
KREE 191015Z 27005KT 05/M01 A2998 RMK A01 T00481007  RH  068%=      5-min Rain = 0
KREE 191020Z 27005KT 04/M01 A2998 RMK A01 T00441010  RH  069%=      5-min Rain = 0
KREE 191025Z 29005KT 04/M01 A2998 RMK A01 T00441010  RH  069%=      5-min Rain = 0
KREE 191030Z 28004KT 04/M01 A2998 RMK A01 T00401010  RH  070%=      5-min Rain = 0
KREE 191035Z 28004KT 04/M01 A2998 RMK A01 T00431009  RH  069%=      5-min Rain = 0
KREE 191040Z 27004KT 04/M01 A2998 RMK A01 T00431010  RH  069%=      5-min Rain = 0
KREE 191045Z 28004KT 04/M01 A2998 RMK A01 T00441009  RH  069%=      5-min Rain = 0
KREE 191050Z 29005KT 04/M01 A2998 RMK A01 T00441010  RH  069%=      5-min Rain = 0
KREE 191055Z 29005KT 04/M01 A2998 RMK A01 T00401011  RH  070%=      5-min Rain = 0
KREE 191100Z 30005KT 05/M01 A2998 RMK A01 T00451007  RH  070%=      5-min Rain = 0
KREE 191105Z 30005KT 05/M01 A2998 RMK A01 T00471009  RH  068%=      5-min Rain = 0
KREE 191110Z 29004KT 05/M01 A2998 RMK A01 T00461009  RH  068%=      5-min Rain = 0
KREE 191115Z 29004KT 04/M01 A2998 RMK A01 T00441009  RH  069%=      5-min Rain = 0
KREE 191120Z 30003KT 04/M01 A2997 RMK A01 T00431009  RH  070%=      5-min Rain = 0
KREE 191125Z 32002KT 04/M01 A2997 RMK A01 T00411010  RH  070%=      5-min Rain = 0
KREE 191130Z 00002KT 04/M01 A2997 RMK A01 T00411008  RH  071%=      5-min Rain = 0
KREE 191135Z 32001KT 05/M01 A2997 RMK A01 T00501007  RH  067%=      5-min Rain = 0
KREE 191140Z 36001KT 05/M01 A2997 RMK A01 T00481009  RH  067%=      5-min Rain = 0
KREE 191145Z 04002KT 05/M01 A2997 RMK A01 T00461009  RH  068%=      5-min Rain = 0
KREE 191150Z 05002KT 04/M01 A2997 RMK A01 T00391011  RH  071%=      5-min Rain = 0
KREE 191155Z 03002KT 04/M01 A2996 RMK A01 T00391010  RH  071%=      5-min Rain = 0
KREE 191200Z 36004KT 03/M01 A2996 RMK A01 T00321013  RH  073%=      5-min Rain = 0
KREE 191205Z 01003KT 03/M01 A2996 RMK A01 T00321010  RH  075%=      5-min Rain = 0
KREE 191210Z 02003KT 05/M01 A2996 RMK A01 T00451006  RH  070%=      5-min Rain = 0
KREE 191215Z 02005KT 04/M01 A2996 RMK A01 T00431011  RH  069%=      5-min Rain = 0
KREE 191220Z 04005KT 03/M01 A2996 RMK A01 T00341013  RH  072%=      5-min Rain = 0
KREE 191225Z 04005KT 04/M01 A2996 RMK A01 T00381012  RH  071%=      5-min Rain = 0
KREE 191230Z 04005KT 03/M02 A2996 RMK A01 T00271020  RH  072%=      5-min Rain = 0
KREE 191235Z 03006KT 02/M02 A2996 RMK A01 T00221019  RH  075%=      5-min Rain = 0
KREE 191240Z 02006KT 02/M02 A2996 RMK A01 T00201018  RH  077%=      5-min Rain = 0
KREE 191245Z 03006KT 03/M02 A2996 RMK A01 T00261016  RH  075%=      5-min Rain = 0
KREE 191250Z 03006KT 03/M02 A2996 RMK A01 T00271020  RH  072%=      5-min Rain = 0
KREE 191255Z 02005KT 02/M02 A2996 RMK A01 T00181024  RH  075%=      5-min Rain = 0
KREE 191300Z 01004KT 02/M02 A2996 RMK A01 T00151021  RH  078%=      5-min Rain = 0
KREE 191305Z 00004KT 02/M02 A2996 RMK A01 T00171020  RH  078%=      5-min Rain = 0
KREE 191310Z 30004KT 02/M02 A2996 RMK A01 T00151021  RH  077%=      5-min Rain = 0
KREE 191315Z 28006KT 01/M02 A2996 RMK A01 T00101021  RH  081%=      5-min Rain = 0
KREE 191320Z 27006KT 01/M02 A2997 RMK A01 T00101019  RH  082%=      5-min Rain = 0
KREE 191325Z 28007KT 01/M02 A2997 RMK A01 T00111018  RH  082%=      5-min Rain = 0
KREE 191330Z 29007KT 01/M02 A2997 RMK A01 T00121018  RH  082%=      5-min Rain = 0
KREE 191335Z 30007KT 01/M02 A2997 RMK A01 T00131017  RH  081%=      5-min Rain = 0
KREE 191340Z 29006KT 02/M02 A2997 RMK A01 T00161016  RH  081%=      5-min Rain = 0
KREE 191345Z 28007KT 02/M02 A2997 RMK A01 T00181015  RH  080%=      5-min Rain = 0
KREE 191350Z 28006KT 02/M01 A2997 RMK A01 T00201014  RH  079%=      5-min Rain = 0
KREE 191355Z 29005KT 02/M01 A2997 RMK A01 T00201013  RH  079%=      5-min Rain = 0
KREE 191400Z 30005KT 03/M01 A2997 RMK A01 T00251011  RH  078%=      5-min Rain = 0
KREE 191405Z 31004KT 03/M01 A2997 RMK A01 T00291009  RH  077%=      5-min Rain = 0
KREE 191410Z 33004KT 04/M01 A2997 RMK A01 T00351006  RH  075%=      5-min Rain = 0
KREE 191415Z 35005KT 04/M00 A2997 RMK A01 T00411003  RH  073%=      5-min Rain = 0
KREE 191420Z 01004KT 05/00 A2997 RMK A01 T004800-0  RH  072%=      5-min Rain = 0
KREE 191425Z 35003KT 05/00 A2997 RMK A01 T00530002  RH  070%=      5-min Rain = 0
KREE 191430Z 36002KT 06/00 A2997 RMK A01 T00560003  RH  070%=      5-min Rain = 0
KREE 191435Z 36002KT 06/00 A2997 RMK A01 T00600003  RH  067%=      5-min Rain = 0
KREE 191440Z 02001KT 07/01 A2997 RMK A01 T00670009  RH  067%=      5-min Rain = 0
KREE 191445Z 04001KT 08/02 A2997 RMK A01 T00790017  RH  066%=      5-min Rain = 0
KREE 191450Z 05002KT 08/01 A2997 RMK A01 T00840013  RH  062%=      5-min Rain = 0
KREE 191455Z 06002KT 09/02 A2997 RMK A01 T00900016  RH  061%=      5-min Rain = 0
KREE 191500Z 11001KT 10/02 A2997 RMK A01 T01010020  RH  058%=      5-min Rain = 0
KREE 191505Z 14001KT 11/02 A2997 RMK A01 T01130023  RH  054%=      5-min Rain = 0
KREE 191510Z 15002KT 12/02 A2997 RMK A01 T01150022  RH  054%=      5-min Rain = 0
KREE 191515Z 15002KT 12/02 A2997 RMK A01 T01210024  RH  052%=      5-min Rain = 0
KREE 191520Z 15003KT 13/02 A2997 RMK A01 T01250016  RH  048%=      5-min Rain = 0
KREE 191525Z 16004KT 13/01 A2997 RMK A01 T01290013  RH  046%=      5-min Rain = 0
KREE 191530Z 17005KT 13/01 A2997 RMK A01 T01320011  RH  044%=      5-min Rain = 0
KREE 191535Z 16005KT 14/01 A2997 RMK A01 T01350014  RH  044%=      5-min Rain = 0
KREE 191540Z 17005KT 14/02 A2997 RMK A01 T01420016  RH  043%=      5-min Rain = 0
KREE 191545Z 17007KT 15/01 A2997 RMK A01 T01510009  RH  039%=      5-min Rain = 0
KREE 191550Z 17008KT 16/01 A2997 RMK A01 T01570006  RH  036%=      5-min Rain = 0
KREE 191555Z 17008KT 16/01 A2997 RMK A01 T01610005  RH  035%=      5-min Rain = 0
KREE 191600Z 18007KT 16/01 A2997 RMK A01 T01640005  RH  034%=      5-min Rain = 0
KREE 191605Z 17009KT 17/01 A2997 RMK A01 T01670005  RH  034%=      5-min Rain = 0
KREE 191610Z 18008KT 17/01 A2997 RMK A01 T01680009  RH  034%=      5-min Rain = 0
KREE 191615Z 17006KT 17/01 A2997 RMK A01 T01720011  RH  034%=      5-min Rain = 0
KREE 191620Z 18008KT 18/01 A2997 RMK A01 T01770007  RH  032%=      5-min Rain = 0
KREE 191625Z 17008KT 18/01 A2997 RMK A01 T01800008  RH  032%=      5-min Rain = 0
KREE 191630Z 17008KT 18/01 A2997 RMK A01 T01830010  RH  032%=      5-min Rain = 0
KREE 191635Z 16009KT 18/01 A2996 RMK A01 T01840011  RH  032%=      5-min Rain = 0
KREE 191640Z 17009KT 19/01 A2996 RMK A01 T01850009  RH  031%=      5-min Rain = 0
KREE 191645Z 17010KT 18/01 A2996 RMK A01 T01830005  RH  031%=      5-min Rain = 0
KREE 191650Z 17011KT 18/01 A2996 RMK A01 T01840008  RH  031%=      5-min Rain = 0
KREE 191655Z 17011KT 18/01 A2996 RMK A01 T01840010  RH  031%=      5-min Rain = 0
KREE 191700Z 17013KT 19/01 A2996 RMK A01 T01850008  RH  031%=      5-min Rain = 0
KREE 191705Z 17012KT 19/01 A2996 RMK A01 T01870012  RH  031%=      5-min Rain = 0
KREE 191710Z 18013KT 19/01 A2996 RMK A01 T01880012  RH  031%=      5-min Rain = 0
KREE 191715Z 18012KT 19/01 A2995 RMK A01 T01900014  RH  031%=      5-min Rain = 0
KREE 191720Z 18011KT 20/02 A2995 RMK A01 T01950015  RH  030%=      5-min Rain = 0
KREE 191725Z 19011KT 20/01 A2995 RMK A01 T01970011  RH  029%=      5-min Rain = 0
KREE 191730Z 19012KT 20/01 A2995 RMK A01 T01990010  RH  029%=      5-min Rain = 0
KREE 191735Z 18011KT 20/01 A2994 RMK A01 T02030011  RH  028%=      5-min Rain = 0
KREE 191740Z 19012KT 21/01 A2994 RMK A01 T02050009  RH  027%=      5-min Rain = 0
KREE 191745Z 19013KT 21/01 A2994 RMK A01 T02070006  RH  026%=      5-min Rain = 0
KREE 191750Z 19013KT 21/00 A2994 RMK A01 T02090003  RH  026%=      5-min Rain = 0
KREE 191755Z 20014KT 21/01 A2993 RMK A01 T02120005  RH  025%=      5-min Rain = 0
KREE 191800Z 19013KT 21/01 A2993 RMK A01 T02120005  RH  026%=      5-min Rain = 0
KREE 191805Z 20013KT 22/00 A2993 RMK A01 T02170004  RH  025%=      5-min Rain = 0
KREE 191810Z 19015KT 22/00 A2993 RMK A01 T02170003  RH  024%=      5-min Rain = 0
KREE 191815Z 18016KT 22/M00 A2992 RMK A01 T02151001  RH  024%=      5-min Rain = 0
KREE 191820Z 18016G21KT 22/00 A2992 RMK A01 T02150003  RH  025%=      5-min Rain = 0
KREE 191825Z 19016KT 22/00 A2992 RMK A01 T02160003  RH  025%=      5-min Rain = 0
KREE 191830Z 19015KT 22/01 A2991 RMK A01 T02200005  RH  024%=      5-min Rain = 0
KREE 191835Z 20017KT 22/00 A2991 RMK A01 T02210003  RH  024%=      5-min Rain = 0
KREE 191840Z 19015KT 22/00 A2991 RMK A01 T02210002  RH  024%=      5-min Rain = 0
KREE 191845Z 19015KT 22/00 A2991 RMK A01 T02240000  RH  023%=      5-min Rain = 0
KREE 191850Z 20016KT 23/M00 A299 RMK A01 T02281003  RH  022%=      5-min Rain = 0
KREE 191855Z 19017G23KT 23/M01 A299 RMK A01 T02311006  RH  021%=      5-min Rain = 0
KREE 191900Z 20018KT 23/M01 A299 RMK A01 T02301010  RH  020%=      5-min Rain = 0
KREE 191905Z 20019G24KT 23/M01 A2989 RMK A01 T02321011  RH  020%=      5-min Rain = 0
KREE 191910Z 20020KT 23/M01 A2989 RMK A01 T02311012  RH  020%=      5-min Rain = 0
KREE 191915Z 20018G23KT 23/M01 A2989 RMK A01 T02331010  RH  020%=      5-min Rain = 0
KREE 191920Z 20019KT 23/M01 A2989 RMK A01 T02331008  RH  020%=      5-min Rain = 0
KREE 191925Z 19018KT 24/M01 A2988 RMK A01 T02371009  RH  020%=      5-min Rain = 0
KREE 191930Z 20017KT 24/M01 A2988 RMK A01 T02391008  RH  020%=      5-min Rain = 0
KREE 191935Z 21017G23KT 24/M01 A2988 RMK A01 T02411009  RH  019%=      5-min Rain = 0
KREE 191940Z 21019KT 24/M01 A2987 RMK A01 T02401011  RH  019%=      5-min Rain = 0
KREE 191945Z 21018G25KT 24/M01 A2987 RMK A01 T02381013  RH  019%=      5-min Rain = 0
KREE 191950Z 21018G23KT 24/M01 A2987 RMK A01 T02421011  RH  019%=      5-min Rain = 0
KREE 191955Z 19019G25KT 24/M01 A2986 RMK A01 T02411012  RH  019%=      5-min Rain = 0
KREE 192000Z 19019KT 24/M01 A2986 RMK A01 T02411012  RH  019%=      5-min Rain = 0
KREE 192005Z 20019KT 24/M01 A2986 RMK A01 T02411011  RH  019%=      5-min Rain = 0
KREE 192010Z 20016KT 24/M01 A2986 RMK A01 T02441008  RH  019%=      5-min Rain = 0
KREE 192015Z 20016KT 25/M01 A2985 RMK A01 T02461009  RH  019%=      5-min Rain = 0
KREE 192020Z 20016G21KT 25/M01 A2985 RMK A01 T02481007  RH  019%=      5-min Rain = 0
KREE 192025Z 19017G22KT 25/M01 A2985 RMK A01 T02491008  RH  019%=      5-min Rain = 0
KREE 192030Z 19015G20KT 25/M01 A2985 RMK A01 T02501005  RH  019%=      5-min Rain = 0
KREE 192035Z 20016G22KT 25/M01 A2985 RMK A01 T02511006  RH  019%=      5-min Rain = 0
KREE 192040Z 19016G22KT 25/M01 A2984 RMK A01 T02491007  RH  019%=      5-min Rain = 0
KREE 192045Z 19016G22KT 25/M01 A2984 RMK A01 T02501009  RH  018%=      5-min Rain = 0
KREE 192050Z 21016G21KT 25/M01 A2984 RMK A01 T02521013  RH  017%=      5-min Rain = 0
KREE 192055Z 19016KT 25/M01 A2984 RMK A01 T02451014  RH  018%=      5-min Rain = 0
KREE 192100Z 19015KT 24/M02 A2984 RMK A01 T02431015  RH  018%=      5-min Rain = 0
KREE 192105Z 20014KT 25/M02 A2983 RMK A01 T02481015  RH  018%=      5-min Rain = 0
KREE 192110Z 20016KT 25/M01 A2983 RMK A01 T02481013  RH  018%=      5-min Rain = 0
KREE 192115Z 19015KT 24/M01 A2983 RMK A01 T02441013  RH  018%=      5-min Rain = 0
KREE 192120Z 19016G21KT 25/M01 A2983 RMK A01 T02471013  RH  018%=      5-min Rain = 0
KREE 192125Z 19017KT 25/M01 A2983 RMK A01 T02451014  RH  018%=      5-min Rain = 0
KREE 192130Z 19015KT 24/M02 A2983 RMK A01 T02431016  RH  018%=      5-min Rain = 0
KREE 192135Z 19017KT 25/M02 A2982 RMK A01 T02481019  RH  017%=      5-min Rain = 0
KREE 192140Z 19015G20KT 25/M02 A2982 RMK A01 T02501021  RH  017%=      5-min Rain = 0
KREE 192145Z 19017G22KT 25/M02 A2982 RMK A01 T02521022  RH  016%=      5-min Rain = 0
KREE 192150Z 19017KT 25/M02 A2982 RMK A01 T02461024  RH  017%=      5-min Rain = 0
KREE 192155Z 19015KT 24/M02 A2982 RMK A01 T02401023  RH  018%=      5-min Rain = 0
KREE 192200Z 19014KT 24/M02 A2982 RMK A01 T02441022  RH  017%=      5-min Rain = 0
KREE 192205Z 19014G20KT 25/M02 A2982 RMK A01 T02491023  RH  017%=      5-min Rain = 0
KREE 192210Z 19015G20KT 25/M03 A2982 RMK A01 T02461025  RH  017%=      5-min Rain = 0
KREE 192215Z 19015KT 25/M02 A2982 RMK A01 T02461024  RH  017%=      5-min Rain = 0
KREE 192220Z 19014KT 24/M02 A2982 RMK A01 T02441024  RH  017%=      5-min Rain = 0
KREE 192225Z 19012KT 24/M02 A2982 RMK A01 T02411023  RH  017%=      5-min Rain = 0
KREE 192230Z 19012G17KT 24/M02 A2982 RMK A01 T02441022  RH  017%=      5-min Rain = 0
KREE 192235Z 19014KT 25/M02 A2982 RMK A01 T02451023  RH  017%=      5-min Rain = 0
KREE 192240Z 19013KT 24/M02 A2982 RMK A01 T02441024  RH  017%=      5-min Rain = 0
KREE 192245Z 18013KT 24/M02 A2982 RMK A01 T02431024  RH  017%=      5-min Rain = 0
KREE 192250Z 19013G18KT 24/M02 A2982 RMK A01 T02411024  RH  017%=      5-min Rain = 0
KREE 192255Z 19014KT 24/M02 A2982 RMK A01 T02381023  RH  018%=      5-min Rain = 0
KREE 192300Z 19015KT 23/M02 A2982 RMK A01 T02341024  RH  018%=      5-min Rain = 0
KREE 192305Z 19015KT 23/M03 A2982 RMK A01 T02291025  RH  018%=      5-min Rain = 0
KREE 192310Z 19012KT 22/M02 A2982 RMK A01 T02231024  RH  019%=      5-min Rain = 0
KREE 192315Z 19011KT 22/M02 A2982 RMK A01 T02171023  RH  020%=      5-min Rain = 0
KREE 192320Z 19010KT 21/M02 A2982 RMK A01 T02111022  RH  021%=      5-min Rain = 0
KREE 192325Z 19010KT 21/M02 A2982 RMK A01 T02061021  RH  022%=      5-min Rain = 0
KREE 192330Z 19009KT 20/M02 A2982 RMK A01 T02001020  RH  023%=      5-min Rain = 0
KREE 192335Z 18009KT 20/M02 A2982 RMK A01 T01951020  RH  024%=      5-min Rain = 0
KREE 192340Z 18009KT 19/M02 A2982 RMK A01 T01891020  RH  024%=      5-min Rain = 0
KREE 192345Z 18009KT 19/M02 A2982 RMK A01 T01861020  RH  025%=      5-min Rain = 0
KREE 192350Z 18008KT 18/M02 A2982 RMK A01 T01841019  RH  025%=      5-min Rain = 0
KREE 192355Z 17007KT 18/M02 A2982 RMK A01 T01751019  RH  027%=      5-min Rain = 0
KREE 200000Z 18007KT 17/M02 A2982 RMK A01 T01701018  RH  028%=      5-min Rain = 0
KREE 200005Z 18007KT 17/M02 A2982 RMK A01 T01661018  RH  029%=      5-min Rain = 0
KREE 200010Z 18008KT 16/M02 A2982 RMK A01 T01641018  RH  029%=      5-min Rain = 0
KREE 200015Z 18009KT 17/M02 A2982 RMK A01 T01651018  RH  029%=      5-min Rain = 0
KREE 200020Z 18010KT 16/M02 A2982 RMK A01 T01621017  RH  030%=      5-min Rain = 0
KREE 200025Z 18009KT 16/M02 A2982 RMK A01 T01641017  RH  029%=      5-min Rain = 0
KREE 200030Z 18008KT 16/M02 A2983 RMK A01 T01571016  RH  031%=      5-min Rain = 0
KREE 200035Z 16007KT 15/M02 A2982 RMK A01 T01481015  RH  033%=      5-min Rain = 0
KREE 200040Z 17007KT 15/M02 A2982 RMK A01 T01451016  RH  033%=      5-min Rain = 0
KREE 200045Z 16008KT 14/M02 A2982 RMK A01 T01421016  RH  034%=      5-min Rain = 0
KREE 200050Z 16008KT 14/M02 A2982 RMK A01 T01401015  RH  035%=      5-min Rain = 0
KREE 200055Z 16008KT 14/M02 A2982 RMK A01 T01391015  RH  035%=      5-min Rain = 0
KREE 200100Z 15008KT 14/M02 A2982 RMK A01 T01371015  RH  035%=      5-min Rain = 0
KREE 200105Z 16008KT 14/M02 A2982 RMK A01 T01391015  RH  035%=      5-min Rain = 0
KREE 200110Z 16008KT 14/M01 A2982 RMK A01 T01391014  RH  035%=      5-min Rain = 0
KREE 200115Z 16009KT 14/M01 A2983 RMK A01 T01381012  RH  036%=      5-min Rain = 0
KREE 200120Z 17009KT 14/M01 A2983 RMK A01 T01431010  RH  035%=      5-min Rain = 0
KREE 200125Z 17009KT 14/M01 A2983 RMK A01 T01421010  RH  036%=      5-min Rain = 0
KREE 200130Z 17009KT 14/M01 A2983 RMK A01 T01401009  RH  036%=      5-min Rain = 0
KREE 200135Z 17008KT 14/M01 A2983 RMK A01 T01361009  RH  037%=      5-min Rain = 0
KREE 200140Z 17008KT 13/M01 A2983 RMK A01 T01321008  RH  038%=      5-min Rain = 0
KREE 200145Z 17009KT 13/M01 A2984 RMK A01 T01311007  RH  039%=      5-min Rain = 0
KREE 200150Z 17008KT 13/M01 A2984 RMK A01 T01301007  RH  039%=      5-min Rain = 0
KREE 200155Z 17008KT 13/M01 A2984 RMK A01 T01291006  RH  040%=      5-min Rain = 0
KREE 200200Z 17008KT 13/M01 A2984 RMK A01 T01261006  RH  041%=      5-min Rain = 0
KREE 200205Z 16009KT 12/M01 A2984 RMK A01 T01231005  RH  042%=      5-min Rain = 0
KREE 200210Z 17009KT 12/M00 A2984 RMK A01 T01241004  RH  042%=      5-min Rain = 0
KREE 200215Z 17009KT 13/M00 A2984 RMK A01 T01251003  RH  042%=      5-min Rain = 0
KREE 200220Z 17009KT 13/M00 A2984 RMK A01 T01261002  RH  042%=      5-min Rain = 0
KREE 200225Z 17009KT 13/M00 A2984 RMK A01 T01261001  RH  042%=      5-min Rain = 0
KREE 200230Z 17009KT 13/00 A2984 RMK A01 T01250000  RH  043%=      5-min Rain = 0
KREE 200235Z 17009KT 13/00 A2984 RMK A01 T01250001  RH  043%=      5-min Rain = 0
KREE 200240Z 17009KT 13/00 A2984 RMK A01 T01280002  RH  042%=      5-min Rain = 0
KREE 200245Z 17009KT 13/00 A2983 RMK A01 T01280003  RH  043%=      5-min Rain = 0
KREE 200250Z 17009KT 13/00 A2983 RMK A01 T01300003  RH  042%=      5-min Rain = 0
KREE 200255Z 18009KT 13/00 A2983 RMK A01 T01320003  RH  042%=      5-min Rain = 0
KREE 200300Z 18009KT 13/00 A2983 RMK A01 T01340003  RH  041%=      5-min Rain = 0
KREE 200305Z 18010KT 13/00 A2983 RMK A01 T01320003  RH  042%=      5-min Rain = 0
KREE 200310Z 18009KT 13/00 A2983 RMK A01 T01310003  RH  042%=      5-min Rain = 0
KREE 200315Z 18009KT 13/00 A2983 RMK A01 T01300003  RH  042%=      5-min Rain = 0
KREE 200320Z 18009KT 13/00 A2983 RMK A01 T01290003  RH  042%=      5-min Rain = 0
KREE 200325Z 18009KT 13/00 A2983 RMK A01 T01260003  RH  043%=      5-min Rain = 0
KREE 200330Z 18010KT 13/00 A2983 RMK A01 T01260004  RH  044%=      5-min Rain = 0
KREE 200335Z 18010KT 12/00 A2983 RMK A01 T01230004  RH  044%=      5-min Rain = 0
KREE 200340Z 18010KT 12/00 A2984 RMK A01 T01240004  RH  044%=      5-min Rain = 0
KREE 200345Z 18010KT 12/01 A2984 RMK A01 T01240005  RH  045%=      5-min Rain = 0
KREE 200350Z 18010KT 12/01 A2984 RMK A01 T01230006  RH  045%=      5-min Rain = 0
KREE 200355Z 18010KT 12/01 A2984 RMK A01 T01220006  RH  046%=      5-min Rain = 0
KREE 200400Z 18010KT 12/01 A2984 RMK A01 T01210006  RH  046%=      5-min Rain = 0
KREE 200405Z 18010KT 12/01 A2984 RMK A01 T01180007  RH  047%=      5-min Rain = 0
KREE 200410Z 18009KT 12/01 A2983 RMK A01 T01180008  RH  048%=      5-min Rain = 0
KREE 200415Z 18010KT 12/01 A2983 RMK A01 T01180011  RH  048%=      5-min Rain = 0
KREE 200420Z 18010KT 12/01 A2983 RMK A01 T01200013  RH  049%=      5-min Rain = 0
KREE 200425Z 18011KT 12/02 A2983 RMK A01 T01200015  RH  049%=      5-min Rain = 0
KREE 200430Z 18010KT 12/02 A2983 RMK A01 T01220018  RH  049%=      5-min Rain = 0
KREE 200435Z 19011KT 13/02 A2984 RMK A01 T01250020  RH  049%=      5-min Rain = 0
KREE 200440Z 19011KT 13/02 A2984 RMK A01 T01270022  RH  049%=      5-min Rain = 0
KREE 200445Z 19012KT 13/02 A2983 RMK A01 T01280023  RH  049%=      5-min Rain = 0
KREE 200450Z 19012KT 13/03 A2983 RMK A01 T01300026  RH  050%=      5-min Rain = 0
KREE 200455Z 19013KT 13/03 A2984 RMK A01 T01310027  RH  050%=      5-min Rain = 0
KREE 200500Z 19013KT 13/03 A2984 RMK A01 T01310028  RH  050%=      5-min Rain = 0
KREE 200505Z 19014KT 13/03 A2984 RMK A01 T01310031  RH  051%=      5-min Rain = 0
KREE 200510Z 19014KT 13/03 A2984 RMK A01 T01320034  RH  052%=      5-min Rain = 0
KREE 200515Z 19014KT 13/04 A2984 RMK A01 T01330037  RH  053%=      5-min Rain = 0
KREE 200520Z 19014KT 14/04 A2984 RMK A01 T01350040  RH  053%=      5-min Rain = 0
KREE 200525Z 19014KT 14/04 A2984 RMK A01 T01350042  RH  054%=      5-min Rain = 0
KREE 200530Z 19014KT 14/05 A2984 RMK A01 T01360045  RH  055%=      5-min Rain = 0
KREE 200535Z 19014KT 14/05 A2984 RMK A01 T01380047  RH  055%=      5-min Rain = 0
KREE 200540Z 19013KT 14/05 A2984 RMK A01 T01390049  RH  056%=      5-min Rain = 0
KREE 200545Z 19013KT 14/05 A2984 RMK A01 T01390051  RH  056%=      5-min Rain = 0
KREE 200550Z 19013KT 14/05 A2984 RMK A01 T01390052  RH  057%=      5-min Rain = 0
KREE 200555Z 19013KT 14/05 A2984 RMK A01 T01380053  RH  057%=      5-min Rain = 0

Page generated in 0.0088 seconds.